createdAt,value
2017-10-15T00:01:40.970Z,99.90
2017-10-15T00:04:08.457Z,99.90
2017-10-15T00:06:36.687Z,99.90
2017-10-15T00:09:04.167Z,99.90
2017-10-15T00:11:31.635Z,99.90
2017-10-15T00:13:59.874Z,99.90
2017-10-15T00:16:27.396Z,99.90
2017-10-15T00:18:54.869Z,99.90
2017-10-15T00:21:22.327Z,99.90
2017-10-15T00:23:49.796Z,99.90
2017-10-15T00:26:17.263Z,99.90
2017-10-15T00:28:44.747Z,99.90
2017-10-15T00:31:12.207Z,99.90
2017-10-15T00:33:39.676Z,99.90
2017-10-15T00:36:07.915Z,99.90
2017-10-15T00:38:35.395Z,99.90
2017-10-15T00:41:02.859Z,99.90
2017-10-15T00:43:30.332Z,99.90
2017-10-15T00:45:58.576Z,99.90
2017-10-15T00:48:26.051Z,99.90
2017-10-15T00:50:53.528Z,99.90
2017-10-15T00:53:21.764Z,99.90
2017-10-15T00:55:49.247Z,99.90
2017-10-15T00:58:16.711Z,99.90
2017-10-15T01:00:44.199Z,99.90
2017-10-15T01:03:11.685Z,99.90
2017-10-15T01:05:39.155Z,99.90
2017-10-15T01:08:06.621Z,99.90
2017-10-15T01:10:34.114Z,99.90
2017-10-15T01:13:02.349Z,99.90
2017-10-15T01:15:29.820Z,99.90
2017-10-15T01:17:57.348Z,99.90
2017-10-15T01:20:24.820Z,99.90
2017-10-15T01:22:52.282Z,99.90
2017-10-15T01:25:19.747Z,99.90
2017-10-15T01:27:47.220Z,99.90
2017-10-15T01:30:14.684Z,99.90
2017-10-15T01:32:42.161Z,99.90
2017-10-15T01:35:10.391Z,99.90
2017-10-15T01:37:37.869Z,99.90
2017-10-15T01:40:05.358Z,99.90
2017-10-15T01:42:33.596Z,99.90
2017-10-15T01:45:01.063Z,99.90
2017-10-15T01:47:28.542Z,99.90
2017-10-15T01:49:56.773Z,99.90
2017-10-15T01:52:24.247Z,99.90
2017-10-15T01:54:51.747Z,99.90
2017-10-15T01:57:19.985Z,99.90
2017-10-15T01:59:47.452Z,99.90
2017-10-15T02:02:14.948Z,99.90
2017-10-15T02:04:42.415Z,99.90
2017-10-15T02:07:09.888Z,99.90
2017-10-15T02:09:37.380Z,99.90
2017-10-15T02:12:04.843Z,99.90
2017-10-15T02:14:32.323Z,99.90
2017-10-15T02:17:00.556Z,99.90
2017-10-15T02:19:28.027Z,99.90
2017-10-15T02:21:55.505Z,99.90
2017-10-15T02:24:23.745Z,99.90
2017-10-15T02:26:51.208Z,99.90
2017-10-15T02:29:18.681Z,99.90
2017-10-15T02:31:46.147Z,99.90
2017-10-15T02:34:13.621Z,99.90
2017-10-15T02:36:41.097Z,99.90
2017-10-15T02:39:23.340Z,99.90
2017-10-15T02:41:50.799Z,99.90
2017-10-15T02:44:18.280Z,99.90
2017-10-15T02:46:46.519Z,99.90
2017-10-15T02:49:14.013Z,99.90
2017-10-15T02:51:42.262Z,99.90
2017-10-15T02:54:09.726Z,99.90
2017-10-15T02:56:37.187Z,99.90
2017-10-15T02:59:04.668Z,99.90
2017-10-15T03:01:32.895Z,99.90
2017-10-15T03:04:00.376Z,99.90
2017-10-15T03:06:28.071Z,99.90
2017-10-15T03:08:55.577Z,99.90
2017-10-15T03:11:23.039Z,99.90
2017-10-15T03:13:50.500Z,99.90
2017-10-15T03:16:17.967Z,99.90
2017-10-15T03:18:45.444Z,99.90
2017-10-15T03:21:12.965Z,99.90
2017-10-15T03:23:40.438Z,99.90
2017-10-15T03:26:07.912Z,99.90
2017-10-15T03:28:35.395Z,99.90
2017-10-15T03:31:03.631Z,99.90
2017-10-15T03:33:31.912Z,99.90
2017-10-15T03:35:59.387Z,99.90
2017-10-15T03:38:27.632Z,99.90
2017-10-15T03:40:55.111Z,99.90
2017-10-15T03:43:22.593Z,99.90
2017-10-15T03:45:50.829Z,99.90
2017-10-15T03:48:18.306Z,99.90
2017-10-15T03:50:45.805Z,99.90
2017-10-15T03:53:13.295Z,99.90
2017-10-15T03:55:40.757Z,99.90
2017-10-15T03:58:08.219Z,99.90
2017-10-15T04:00:35.692Z,99.90
2017-10-15T04:03:03.163Z,99.90
2017-10-15T04:05:30.639Z,99.90
2017-10-15T04:07:58.881Z,99.90
2017-10-15T04:10:26.335Z,99.90
2017-10-15T04:12:53.837Z,99.90
2017-10-15T04:15:22.088Z,99.90
2017-10-15T04:17:49.569Z,99.90
2017-10-15T04:20:17.804Z,99.90
2017-10-15T04:22:45.280Z,99.90
2017-10-15T04:25:12.753Z,99.90
2017-10-15T04:27:40.996Z,99.90
2017-10-15T04:30:08.458Z,99.90
2017-10-15T04:32:35.949Z,99.90
2017-10-15T04:35:04.221Z,99.90
2017-10-15T04:37:31.697Z,99.90
2017-10-15T04:39:59.928Z,99.90
2017-10-15T04:42:27.397Z,99.90
2017-10-15T04:44:54.864Z,99.90
2017-10-15T04:47:23.104Z,99.90
2017-10-15T04:49:51.349Z,99.90
2017-10-15T04:52:18.827Z,99.90
2017-10-15T04:54:46.325Z,99.90
2017-10-15T04:57:13.788Z,99.90
2017-10-15T04:59:41.264Z,99.90
2017-10-15T05:02:08.760Z,99.90
2017-10-15T05:04:36.234Z,99.90
2017-10-15T05:07:03.698Z,99.90
2017-10-15T05:09:31.168Z,99.90
2017-10-15T05:11:58.637Z,99.90
2017-10-15T05:14:26.105Z,99.90
2017-10-15T05:16:54.341Z,99.90
2017-10-15T05:19:22.628Z,99.90
2017-10-15T05:21:50.105Z,99.90
2017-10-15T05:24:17.576Z,99.90
2017-10-15T05:26:45.808Z,99.90
2017-10-15T05:29:13.279Z,99.90
2017-10-15T05:31:40.750Z,99.90
2017-10-15T05:34:08.362Z,99.90
2017-10-15T05:36:35.828Z,99.90
2017-10-15T05:39:03.304Z,99.90
2017-10-15T05:41:30.769Z,99.90
2017-10-15T05:43:58.226Z,99.90
2017-10-15T05:46:25.701Z,99.90
2017-10-15T05:48:53.172Z,99.90
2017-10-15T05:51:20.645Z,99.90
2017-10-15T05:53:48.883Z,99.90
2017-10-15T05:56:16.353Z,99.90
2017-10-15T05:58:43.810Z,99.90
2017-10-15T06:01:11.283Z,99.90
2017-10-15T06:03:39.521Z,99.90
2017-10-15T06:06:07.002Z,99.90
2017-10-15T06:08:34.492Z,99.90
2017-10-15T06:11:02.719Z,99.90
2017-10-15T06:13:30.211Z,99.90
2017-10-15T06:15:57.680Z,99.90
2017-10-15T06:18:25.903Z,99.90
2017-10-15T06:20:54.151Z,99.90
2017-10-15T06:23:21.620Z,99.90
2017-10-15T06:25:49.093Z,99.90
2017-10-15T06:28:16.563Z,99.90
2017-10-15T06:30:44.034Z,99.90
2017-10-15T06:33:11.507Z,99.90
2017-10-15T06:35:38.980Z,99.90
2017-10-15T06:38:07.237Z,99.90
2017-10-15T06:40:34.721Z,99.90
2017-10-15T06:43:03.074Z,99.90
2017-10-15T06:45:30.539Z,99.90
2017-10-15T06:47:58.788Z,99.90
2017-10-15T06:50:26.252Z,99.90
2017-10-15T06:52:53.724Z,99.90
2017-10-15T06:55:21.447Z,99.90
2017-10-15T06:57:48.942Z,99.90
2017-10-15T07:00:16.411Z,99.90
2017-10-15T07:02:43.896Z,99.90
2017-10-15T07:05:12.137Z,99.90
2017-10-15T07:07:39.612Z,99.90
2017-10-15T07:10:07.835Z,99.90
2017-10-15T07:12:35.311Z,99.90
2017-10-15T07:15:02.781Z,99.90
2017-10-15T07:17:30.251Z,99.90
2017-10-15T07:19:57.731Z,99.90
2017-10-15T07:22:25.975Z,99.90
2017-10-15T07:24:53.456Z,99.90
2017-10-15T07:27:21.705Z,99.90
2017-10-15T07:29:49.199Z,99.90
2017-10-15T07:32:17.477Z,99.90
2017-10-15T07:34:45.718Z,99.90
2017-10-15T07:37:13.968Z,99.90
2017-10-15T07:39:41.436Z,99.90
2017-10-15T07:42:08.916Z,99.90
2017-10-15T07:44:36.394Z,99.90
2017-10-15T07:47:04.583Z,99.90
2017-10-15T07:49:32.825Z,99.90
2017-10-15T07:52:00.311Z,99.90
2017-10-15T07:54:28.560Z,99.90
2017-10-15T07:56:56.073Z,99.90
2017-10-15T07:59:23.562Z,99.90
2017-10-15T08:01:51.031Z,99.90
2017-10-15T08:04:18.511Z,99.90
2017-10-15T08:06:45.993Z,99.90
2017-10-15T08:09:14.255Z,99.90
2017-10-15T08:11:42.481Z,99.90
2017-10-15T08:14:09.977Z,99.90
2017-10-15T08:16:37.452Z,99.90
2017-10-15T08:19:05.712Z,99.90
2017-10-15T08:21:33.182Z,99.90
2017-10-15T08:24:01.429Z,99.90
2017-10-15T08:26:28.918Z,99.90
2017-10-15T08:28:56.388Z,99.90
2017-10-15T08:31:24.623Z,99.90
2017-10-15T08:33:52.108Z,99.90
2017-10-15T08:36:19.591Z,99.90
2017-10-15T08:38:47.100Z,99.90
2017-10-15T08:41:14.565Z,99.90
2017-10-15T08:43:42.048Z,99.90
2017-10-15T08:46:09.507Z,99.90
2017-10-15T08:48:37.003Z,99.90
2017-10-15T08:51:05.244Z,99.90
2017-10-15T08:53:32.716Z,99.90
2017-10-15T08:56:00.184Z,99.90
2017-10-15T08:58:28.428Z,99.90
2017-10-15T09:00:55.908Z,99.90
2017-10-15T09:03:23.378Z,99.90
2017-10-15T09:05:51.620Z,99.90
2017-10-15T09:08:19.088Z,99.90
2017-10-15T09:10:46.581Z,99.90
2017-10-15T09:13:14.817Z,99.90
2017-10-15T09:15:42.305Z,99.90
2017-10-15T09:18:09.763Z,99.90
2017-10-15T09:20:38.004Z,99.90
2017-10-15T09:23:05.476Z,99.90
2017-10-15T09:25:32.954Z,99.90
2017-10-15T09:28:00.421Z,99.90
2017-10-15T09:30:28.665Z,99.90
2017-10-15T09:32:56.160Z,99.90
2017-10-15T09:35:24.404Z,99.90
2017-10-15T09:37:51.876Z,99.90
2017-10-15T09:40:19.362Z,99.90
2017-10-15T09:42:47.608Z,99.90
2017-10-15T09:45:15.093Z,99.90
2017-10-15T09:47:43.332Z,99.90
2017-10-15T09:50:10.792Z,99.90
2017-10-15T09:52:39.028Z,99.90
2017-10-15T09:55:06.555Z,99.90
2017-10-15T09:57:34.800Z,99.90
2017-10-15T10:00:02.285Z,99.90
2017-10-15T10:02:30.647Z,99.60
2017-10-15T10:04:58.117Z,99.50
2017-10-15T10:07:25.592Z,99.90
2017-10-15T10:09:53.833Z,98.70
2017-10-15T10:12:21.293Z,98.60
2017-10-15T10:14:48.751Z,99.10
2017-10-15T10:17:16.232Z,98.80
2017-10-15T10:19:43.687Z,98.20
2017-10-15T10:22:11.151Z,97.70
2017-10-15T10:24:39.393Z,97.70
2017-10-15T10:27:06.876Z,97.70
2017-10-15T10:29:34.338Z,97.70
2017-10-15T10:32:01.815Z,96.90
2017-10-15T10:34:30.052Z,95.40
2017-10-15T10:36:57.520Z,95.40
2017-10-15T10:39:24.989Z,95.50
2017-10-15T10:41:52.462Z,95.20
2017-10-15T10:44:20.745Z,93.90
2017-10-15T10:46:48.985Z,93.50
2017-10-15T10:49:17.960Z,93.50
2017-10-15T10:51:45.432Z,92.30
2017-10-15T10:54:12.916Z,91.90
2017-10-15T10:56:40.409Z,92.00
2017-10-15T10:59:07.887Z,92.20
2017-10-15T11:01:35.759Z,91.30
2017-10-15T11:04:03.239Z,91.30
2017-10-15T11:06:30.712Z,91.00
2017-10-15T11:08:58.188Z,91.20
2017-10-15T11:11:26.466Z,91.70
2017-10-15T11:13:54.699Z,92.00
2017-10-15T11:16:22.932Z,91.90
2017-10-15T11:18:50.411Z,91.90
2017-10-15T11:21:17.885Z,91.50
2017-10-15T11:23:45.396Z,92.20
2017-10-15T11:26:13.787Z,91.10
2017-10-15T11:28:41.287Z,91.10
2017-10-15T11:31:08.748Z,91.20
2017-10-15T11:33:36.229Z,90.70
2017-10-15T11:36:03.683Z,90.60
2017-10-15T11:38:31.199Z,90.40
2017-10-15T11:40:58.665Z,89.30
2017-10-15T11:43:26.140Z,88.50
2017-10-15T11:45:53.607Z,89.40
2017-10-15T11:48:21.856Z,86.70
2017-10-15T11:50:49.325Z,86.70
2017-10-15T11:53:16.886Z,87.10
2017-10-15T11:55:44.374Z,84.70
2017-10-15T11:58:11.833Z,87.00
2017-10-15T12:00:39.308Z,84.90
2017-10-15T12:03:07.539Z,83.90
2017-10-15T12:05:35.029Z,83.90
2017-10-15T12:08:03.271Z,84.30
2017-10-15T12:10:30.754Z,84.30
2017-10-15T12:12:58.224Z,82.80
2017-10-15T12:15:25.743Z,83.60
2017-10-15T12:17:53.205Z,83.30
2017-10-15T12:20:20.730Z,83.30
2017-10-15T12:22:48.959Z,81.20
2017-10-15T12:25:16.432Z,81.20
2017-10-15T12:27:43.892Z,79.60
2017-10-15T12:30:11.354Z,80.00
2017-10-15T12:32:38.820Z,79.70
2017-10-15T12:35:06.309Z,79.60
2017-10-15T12:37:33.778Z,80.30
2017-10-15T12:40:01.251Z,80.60
2017-10-15T12:42:28.716Z,79.90
2017-10-15T12:44:56.248Z,81.10
2017-10-15T12:47:23.714Z,80.00
2017-10-15T12:49:51.176Z,76.80
2017-10-15T12:52:18.652Z,74.80
2017-10-15T12:54:46.107Z,74.30
2017-10-15T12:57:13.589Z,74.40
2017-10-15T12:59:41.065Z,75.20
2017-10-15T13:02:08.544Z,76.20
2017-10-15T13:04:36.016Z,73.20
2017-10-15T13:07:03.491Z,73.00
2017-10-15T13:09:30.986Z,73.80
2017-10-15T13:11:58.465Z,73.20
2017-10-15T13:14:26.710Z,74.80
2017-10-15T13:16:54.189Z,74.70
2017-10-15T13:19:21.661Z,73.20
2017-10-15T13:21:49.899Z,74.70
2017-10-15T13:24:17.369Z,74.60
2017-10-15T13:26:44.848Z,71.80
2017-10-15T13:29:12.313Z,74.60
2017-10-15T13:31:40.568Z,70.70
2017-10-15T13:34:08.043Z,70.60
2017-10-15T13:36:35.528Z,71.60
2017-10-15T13:39:03.002Z,74.20
2017-10-15T13:41:30.489Z,72.80
2017-10-15T13:43:58.728Z,71.60
2017-10-15T13:46:26.188Z,71.60
2017-10-15T13:48:53.664Z,72.00
2017-10-15T13:51:21.152Z,72.40
2017-10-15T13:53:48.629Z,71.70
2017-10-15T13:56:16.109Z,69.40
2017-10-15T13:58:44.343Z,69.70
2017-10-15T14:01:11.809Z,69.70
2017-10-15T14:03:39.281Z,69.40
2017-10-15T14:06:06.745Z,69.80
2017-10-15T14:08:34.993Z,70.00
2017-10-15T14:11:02.480Z,70.00
2017-10-15T14:13:29.947Z,70.30
2017-10-15T14:15:58.167Z,71.70
2017-10-15T14:18:25.665Z,71.60
2017-10-15T14:20:53.133Z,72.00
2017-10-15T14:23:20.604Z,71.60
2017-10-15T14:25:48.094Z,73.10
2017-10-15T14:28:16.336Z,73.70
2017-10-15T14:30:43.801Z,73.60
2017-10-15T14:33:11.272Z,73.90
2017-10-15T14:35:39.056Z,74.20
2017-10-15T14:38:07.292Z,75.10
2017-10-15T14:40:34.750Z,75.10
2017-10-15T14:43:02.248Z,76.60
2017-10-15T14:45:30.474Z,77.60
2017-10-15T14:47:57.952Z,77.60
2017-10-15T14:50:25.448Z,76.90
2017-10-15T14:52:52.919Z,77.50
2017-10-15T14:55:20.405Z,78.30
2017-10-15T14:57:48.069Z,79.20
2017-10-15T15:00:15.601Z,79.90
2017-10-15T15:02:43.064Z,79.70
2017-10-15T15:05:10.544Z,80.00
2017-10-15T15:07:38.012Z,80.60
2017-10-15T15:10:05.481Z,81.10
2017-10-15T15:12:33.817Z,81.30
2017-10-15T15:15:01.293Z,81.40
2017-10-15T15:17:28.784Z,81.30
2017-10-15T15:19:56.262Z,82.20
2017-10-15T15:22:24.497Z,82.50
2017-10-15T15:24:51.974Z,82.50
2017-10-15T15:27:19.441Z,83.00
2017-10-15T15:29:46.933Z,82.90
2017-10-15T15:32:14.414Z,82.80
2017-10-15T15:34:41.891Z,84.50
2017-10-15T15:37:09.371Z,84.10
2017-10-15T15:39:36.837Z,84.60
2017-10-15T15:42:04.308Z,85.30
2017-10-15T15:44:32.545Z,86.80
2017-10-15T15:47:00.015Z,86.80
2017-10-15T15:49:27.489Z,84.80
2017-10-15T15:51:54.960Z,85.20
2017-10-15T15:54:22.416Z,86.60
2017-10-15T15:56:50.698Z,91.10
2017-10-15T15:59:18.939Z,92.20
2017-10-15T16:01:46.408Z,92.20
2017-10-15T16:04:13.874Z,92.30
2017-10-15T16:06:41.339Z,92.40
2017-10-15T16:09:08.811Z,93.10
2017-10-15T16:11:37.956Z,93.90
2017-10-15T16:14:05.477Z,93.90
2017-10-15T16:16:33.729Z,95.10
2017-10-15T16:19:01.192Z,95.00
2017-10-15T16:21:28.665Z,95.50
2017-10-15T16:23:56.880Z,96.00
2017-10-15T16:26:24.361Z,96.00
2017-10-15T16:28:51.830Z,96.30
2017-10-15T16:31:19.314Z,96.20
2017-10-15T16:33:47.549Z,96.40
2017-10-15T16:36:15.016Z,96.40
2017-10-15T16:38:42.487Z,96.80
2017-10-15T16:41:10.037Z,97.30
2017-10-15T16:43:37.605Z,97.80
2017-10-15T16:46:05.065Z,98.00
2017-10-15T16:48:32.541Z,98.70
2017-10-15T16:51:00.777Z,99.20
2017-10-15T16:53:28.256Z,99.10
2017-10-15T16:55:55.729Z,99.70
2017-10-15T16:58:23.200Z,99.80
2017-10-15T17:00:51.441Z,99.40
2017-10-15T17:03:18.908Z,99.30
2017-10-15T17:05:46.387Z,99.60
2017-10-15T17:08:14.629Z,99.90
2017-10-15T17:10:42.087Z,99.90
2017-10-15T17:13:09.571Z,99.90
2017-10-15T17:15:37.046Z,99.90
2017-10-15T17:18:05.303Z,99.90
2017-10-15T17:20:32.758Z,99.90
2017-10-15T17:23:00.247Z,99.90
2017-10-15T17:25:28.823Z,99.90
2017-10-15T17:27:56.344Z,99.90
2017-10-15T17:30:23.817Z,99.90
2017-10-15T17:32:51.288Z,99.90
2017-10-15T17:35:19.537Z,99.90
2017-10-15T17:37:47.006Z,99.90
2017-10-15T17:40:14.504Z,99.90
2017-10-15T17:42:42.728Z,99.90
2017-10-15T17:45:10.204Z,99.90
2017-10-15T17:47:37.672Z,99.60
2017-10-15T17:50:05.161Z,99.30
2017-10-15T17:52:32.632Z,98.90
2017-10-15T17:55:00.101Z,98.70
2017-10-15T17:57:27.576Z,98.40
2017-10-15T17:59:55.818Z,98.20
2017-10-15T18:02:29.929Z,98.10
2017-10-15T18:04:57.437Z,97.90
2017-10-15T18:07:24.891Z,97.80
2017-10-15T18:09:52.367Z,97.70
2017-10-15T18:12:19.841Z,97.50
2017-10-15T18:14:48.086Z,97.40
2017-10-15T18:17:15.560Z,97.40
2017-10-15T18:19:43.027Z,97.50
2017-10-15T18:22:11.269Z,97.60
2017-10-15T18:24:38.745Z,97.50
2017-10-15T18:27:06.219Z,97.70
2017-10-15T18:29:34.464Z,97.90
2017-10-15T18:32:01.995Z,97.80
2017-10-15T18:34:29.465Z,97.90
2017-10-15T18:36:56.942Z,98.00
2017-10-15T18:39:24.406Z,97.90
2017-10-15T18:41:51.883Z,98.10
2017-10-15T18:44:19.360Z,98.10
2017-10-15T18:46:47.601Z,98.20
2017-10-15T18:49:15.060Z,98.20
2017-10-15T18:51:42.537Z,98.40
2017-10-15T18:54:10.046Z,98.50
2017-10-15T18:56:37.523Z,98.60
2017-10-15T18:59:04.996Z,98.70
2017-10-15T19:01:32.480Z,98.70
2017-10-15T19:04:00.711Z,99.20
2017-10-15T19:06:28.180Z,99.20
2017-10-15T19:08:55.661Z,99.20
2017-10-15T19:11:23.114Z,99.30
2017-10-15T19:13:50.590Z,99.40
2017-10-15T19:16:18.811Z,99.10
2017-10-15T19:18:46.293Z,99.10
2017-10-15T19:21:13.760Z,99.30
2017-10-15T19:23:41.236Z,99.50
2017-10-15T19:26:09.480Z,99.80
2017-10-15T19:28:36.952Z,99.80
2017-10-15T19:31:04.415Z,99.90
2017-10-15T19:33:31.884Z,99.90
2017-10-15T19:35:59.357Z,99.90
2017-10-15T19:38:27.605Z,99.90
2017-10-15T19:40:55.083Z,99.90
2017-10-15T19:43:23.328Z,99.90
2017-10-15T19:45:50.804Z,99.90
2017-10-15T19:48:18.267Z,99.90
2017-10-15T19:50:45.782Z,99.90
2017-10-15T19:53:13.253Z,99.90
2017-10-15T19:55:40.760Z,99.90
2017-10-15T19:58:08.996Z,99.90
2017-10-15T20:00:36.523Z,99.90
2017-10-15T20:03:03.983Z,99.90
2017-10-15T20:05:31.457Z,99.90
2017-10-15T20:07:58.975Z,99.90
2017-10-15T20:10:27.208Z,99.90
2017-10-15T20:12:54.670Z,99.90
2017-10-15T20:15:22.285Z,99.90
2017-10-15T20:17:50.798Z,99.90
2017-10-15T20:20:18.276Z,99.90
2017-10-15T20:22:45.824Z,99.90
2017-10-15T20:25:13.309Z,99.90
2017-10-15T20:27:40.784Z,99.90
2017-10-15T20:30:09.041Z,99.90
2017-10-15T20:32:36.528Z,99.90
2017-10-15T20:35:04.763Z,99.90
2017-10-15T20:37:32.237Z,99.90
2017-10-15T20:39:59.705Z,99.90
2017-10-15T20:42:27.944Z,99.60
2017-10-15T20:44:55.427Z,99.30
2017-10-15T20:47:22.902Z,99.50
2017-10-15T20:49:51.140Z,99.20
2017-10-15T20:52:18.616Z,99.20
2017-10-15T20:54:46.092Z,99.10
2017-10-15T20:57:14.328Z,99.10
2017-10-15T20:59:41.802Z,99.00
2017-10-15T21:02:09.280Z,99.00
2017-10-15T21:04:36.740Z,98.50
2017-10-15T21:07:04.208Z,98.50
2017-10-15T21:09:32.431Z,98.20
2017-10-15T21:11:59.908Z,98.20
2017-10-15T21:14:27.388Z,98.10
2017-10-15T21:16:54.858Z,97.80
2017-10-15T21:19:23.093Z,97.10
2017-10-15T21:21:50.575Z,97.10
2017-10-15T21:24:18.048Z,97.00
2017-10-15T21:26:46.320Z,96.70
2017-10-15T21:29:13.784Z,96.80
2017-10-15T21:31:42.024Z,96.50
2017-10-15T21:34:09.496Z,96.40
2017-10-15T21:36:37.150Z,96.40
2017-10-15T21:39:04.627Z,96.30
2017-10-15T21:41:32.089Z,96.20
2017-10-15T21:43:59.560Z,96.20
2017-10-15T21:46:27.787Z,96.20
2017-10-15T21:48:55.260Z,96.10
2017-10-15T21:51:22.732Z,96.20
2017-10-15T21:53:50.206Z,96.30
2017-10-15T21:56:17.678Z,96.30
2017-10-15T21:58:45.916Z,96.00
2017-10-15T22:01:13.416Z,96.00
2017-10-15T22:03:42.781Z,95.90
2017-10-15T22:06:10.269Z,95.80
2017-10-15T22:08:38.629Z,95.80
2017-10-15T22:11:06.899Z,95.80
2017-10-15T22:13:34.362Z,95.70
2017-10-15T22:16:01.829Z,95.80
2017-10-15T22:18:35.096Z,95.90
2017-10-15T22:21:19.383Z,95.80
2017-10-15T22:23:47.620Z,96.00
2017-10-15T22:26:15.111Z,96.00
2017-10-15T22:28:42.572Z,96.10
2017-10-15T22:31:10.034Z,96.20
2017-10-15T22:33:38.267Z,96.20
2017-10-15T22:36:05.731Z,96.10
2017-10-15T22:38:33.198Z,96.20
2017-10-15T22:41:00.678Z,96.10
2017-10-15T22:43:28.232Z,96.00
2017-10-15T22:45:55.712Z,96.10
2017-10-15T22:48:23.941Z,96.10
2017-10-15T22:50:51.411Z,96.10
2017-10-15T22:53:18.903Z,96.20
2017-10-15T22:55:47.139Z,96.30
2017-10-15T22:58:14.604Z,96.10
2017-10-15T23:00:42.073Z,96.30
2017-10-15T23:03:09.559Z,96.30
2017-10-15T23:05:37.799Z,96.30
2017-10-15T23:08:05.273Z,96.20
2017-10-15T23:10:32.750Z,96.30
2017-10-15T23:13:01.165Z,96.10
2017-10-15T23:15:28.636Z,96.00
2017-10-15T23:17:56.105Z,96.10
2017-10-15T23:20:23.574Z,96.10
2017-10-15T23:22:51.052Z,96.00
2017-10-15T23:25:18.523Z,96.00
2017-10-15T23:27:46.768Z,96.10
2017-10-15T23:30:14.241Z,96.10
2017-10-15T23:32:41.708Z,96.10
2017-10-15T23:35:09.940Z,96.10
2017-10-15T23:37:37.420Z,96.10
2017-10-15T23:40:04.887Z,96.20
2017-10-15T23:42:32.360Z,96.30
2017-10-15T23:45:00.596Z,96.30
2017-10-15T23:47:28.080Z,96.30
2017-10-15T23:49:55.563Z,96.40
2017-10-15T23:52:23.800Z,96.40
2017-10-15T23:54:51.287Z,96.40
2017-10-15T23:57:19.552Z,96.70
2017-10-15T23:59:47.019Z,96.90
